createdAt,value
2022-10-10T00:00:55.537Z,3.57
2022-10-10T00:03:23.403Z,3.57
2022-10-10T00:05:52.449Z,3.70
2022-10-10T00:08:20.141Z,3.37
2022-10-10T00:10:48.248Z,3.33
2022-10-10T00:13:16.725Z,3.87
2022-10-10T00:15:48.575Z,3.47
2022-10-10T00:18:17.052Z,3.93
2022-10-10T00:20:44.788Z,4.37
2022-10-10T00:23:13.848Z,3.60
2022-10-10T00:25:41.594Z,3.77
2022-10-10T00:28:09.300Z,3.00
2022-10-10T00:30:37.087Z,2.97
2022-10-10T00:33:04.891Z,3.30
2022-10-10T00:35:32.740Z,3.10
2022-10-10T00:38:00.475Z,2.60
2022-10-10T00:40:30.352Z,3.03
2022-10-10T00:42:58.135Z,2.77
2022-10-10T00:45:31.460Z,2.70
2022-10-10T00:48:03.948Z,2.90
2022-10-10T00:50:34.384Z,2.67
2022-10-10T00:53:05.186Z,2.80
2022-10-10T00:55:34.747Z,2.77
2022-10-10T00:58:02.865Z,2.87
2022-10-10T01:00:32.247Z,2.90
2022-10-10T01:03:00.036Z,3.10
2022-10-10T01:05:27.862Z,2.73
2022-10-10T01:07:56.056Z,2.93
2022-10-10T01:10:24.786Z,2.83
2022-10-10T01:13:11.843Z,2.83
2022-10-10T01:15:49.519Z,2.60
2022-10-10T01:18:26.141Z,2.40
2022-10-10T01:21:24.185Z,2.67
2022-10-10T01:24:15.439Z,2.57
2022-10-10T01:27:14.314Z,2.47
2022-10-10T01:29:46.598Z,2.60
2022-10-10T01:32:17.741Z,2.30
2022-10-10T01:34:57.136Z,2.63
2022-10-10T01:37:35.706Z,3.07
2022-10-10T01:40:09.741Z,3.03
2022-10-10T01:42:42.820Z,2.90
2022-10-10T01:45:12.073Z,3.00
2022-10-10T01:47:40.068Z,2.60
2022-10-10T01:50:13.746Z,3.87
2022-10-10T01:52:53.171Z,3.83
2022-10-10T01:55:35.596Z,3.17
2022-10-10T01:58:19.684Z,3.10
2022-10-10T02:00:54.174Z,2.77
2022-10-10T02:03:28.577Z,2.70
2022-10-10T02:06:01.031Z,2.67
2022-10-10T02:08:34.695Z,2.23
2022-10-10T02:11:07.006Z,2.37
2022-10-10T02:13:40.384Z,2.90
2022-10-10T02:16:15.544Z,2.90
2022-10-10T02:18:45.966Z,2.90
2022-10-10T02:21:15.813Z,3.30
2022-10-10T02:23:46.876Z,3.47
2022-10-10T02:26:17.149Z,3.67
2022-10-10T02:28:51.300Z,3.60
2022-10-10T02:31:27.374Z,3.70
2022-10-10T02:34:00.411Z,3.60
2022-10-10T02:36:30.404Z,3.87
2022-10-10T02:39:00.330Z,2.80
2022-10-10T02:41:30.374Z,2.60
2022-10-10T02:43:59.280Z,2.20
2022-10-10T02:46:28.510Z,2.23
2022-10-10T02:48:56.266Z,2.10
2022-10-10T02:51:26.549Z,2.10
2022-10-10T02:53:57.395Z,2.20
2022-10-10T02:56:25.115Z,1.93
2022-10-10T02:58:52.820Z,2.10
2022-10-10T03:01:20.685Z,2.23
2022-10-10T03:03:49.784Z,2.20
2022-10-10T03:06:17.559Z,2.20
2022-10-10T03:08:45.283Z,1.97
2022-10-10T03:11:13.056Z,2.27
2022-10-10T03:13:40.795Z,2.00
2022-10-10T03:16:08.470Z,2.43
2022-10-10T03:18:36.122Z,2.17
2022-10-10T03:21:05.766Z,2.60
2022-10-10T03:23:34.409Z,2.67
2022-10-10T03:26:02.604Z,2.67
2022-10-10T03:28:30.333Z,2.93
2022-10-10T03:30:58.071Z,2.57
2022-10-10T03:33:25.772Z,2.77
2022-10-10T03:35:53.465Z,2.57
2022-10-10T03:38:22.515Z,2.40
2022-10-10T03:40:50.219Z,2.87
2022-10-10T03:43:18.004Z,2.77
2022-10-10T03:45:47.629Z,2.40
2022-10-10T03:48:15.805Z,3.23
2022-10-10T03:50:43.527Z,2.77
2022-10-10T03:53:11.394Z,2.70
2022-10-10T03:55:42.194Z,2.70
2022-10-10T03:58:10.676Z,2.67
2022-10-10T04:00:39.246Z,2.80
2022-10-10T04:03:08.161Z,2.77
2022-10-10T04:05:36.052Z,3.50
2022-10-10T04:08:04.332Z,3.23
2022-10-10T04:10:32.378Z,4.17
2022-10-10T04:13:01.476Z,4.13
2022-10-10T04:15:30.532Z,4.03
2022-10-10T04:17:58.289Z,4.47
2022-10-10T04:20:26.404Z,4.63
2022-10-10T04:22:54.365Z,3.83
2022-10-10T04:25:22.143Z,3.60
2022-10-10T04:27:49.973Z,4.00
2022-10-10T04:30:19.757Z,2.90
2022-10-10T04:32:47.487Z,3.10
2022-10-10T04:35:15.270Z,3.47
2022-10-10T04:37:42.995Z,3.87
2022-10-10T04:40:11.734Z,3.47
2022-10-10T04:42:39.580Z,4.47
2022-10-10T04:45:08.374Z,4.17
2022-10-10T04:47:37.506Z,4.20
2022-10-10T04:50:05.935Z,4.43
2022-10-10T04:52:33.623Z,4.80
2022-10-10T04:55:01.456Z,4.73
2022-10-10T04:57:29.140Z,4.17
2022-10-10T04:59:56.854Z,4.80
2022-10-10T05:02:24.599Z,4.80
2022-10-10T05:04:53.733Z,4.73
2022-10-10T05:07:21.549Z,4.83
2022-10-10T05:09:49.288Z,4.47
2022-10-10T05:12:17.287Z,5.00
2022-10-10T05:14:48.149Z,4.70
2022-10-10T05:17:16.657Z,4.80
2022-10-10T05:19:44.466Z,5.27
2022-10-10T05:22:19.210Z,4.60
2022-10-10T05:24:47.102Z,5.07
2022-10-10T05:27:14.838Z,5.30
2022-10-10T05:29:42.605Z,5.00
2022-10-10T05:32:10.813Z,4.57
2022-10-10T05:34:38.800Z,4.90
2022-10-10T05:37:06.582Z,5.17
2022-10-10T05:39:36.167Z,5.40
2022-10-10T05:42:04.911Z,4.97
2022-10-10T05:44:33.738Z,5.27
2022-10-10T05:47:01.721Z,4.90
2022-10-10T05:49:29.499Z,5.33
2022-10-10T05:51:57.359Z,5.50
2022-10-10T05:54:25.180Z,5.03
2022-10-10T05:56:54.251Z,4.83
2022-10-10T05:59:21.956Z,4.33
2022-10-10T06:01:49.682Z,4.43
2022-10-10T06:04:17.592Z,5.87
2022-10-10T06:06:45.585Z,5.03
2022-10-10T06:09:13.554Z,4.67
2022-10-10T06:11:41.308Z,4.87
2022-10-10T06:14:10.773Z,4.90
2022-10-10T06:16:39.611Z,5.13
2022-10-10T06:19:11.342Z,5.03
2022-10-10T06:21:41.784Z,5.30
2022-10-10T06:24:10.709Z,5.60
2022-10-10T06:26:38.418Z,5.23
2022-10-10T06:29:07.288Z,5.13
2022-10-10T06:31:39.364Z,5.67
2022-10-10T06:34:07.404Z,5.60
2022-10-10T06:36:35.762Z,5.60
2022-10-10T06:39:03.604Z,5.87
2022-10-10T06:41:31.384Z,6.53
2022-10-10T06:43:59.127Z,6.57
2022-10-10T06:46:26.875Z,5.33
2022-10-10T06:48:55.995Z,5.07
2022-10-10T06:51:24.380Z,5.00
2022-10-10T06:53:52.044Z,5.70
2022-10-10T06:56:26.312Z,7.00
2022-10-10T06:58:55.308Z,5.13
2022-10-10T07:01:24.936Z,6.63
2022-10-10T07:03:52.791Z,5.03
2022-10-10T07:06:22.382Z,4.80
2022-10-10T07:08:50.060Z,4.70
2022-10-10T07:11:17.777Z,4.50
2022-10-10T07:13:45.596Z,5.70
2022-10-10T07:16:13.303Z,5.07
2022-10-10T07:18:41.038Z,5.67
2022-10-10T07:21:08.774Z,5.70
2022-10-10T07:23:39.288Z,6.07
2022-10-10T07:26:09.012Z,5.73
2022-10-10T07:28:36.812Z,5.60
2022-10-10T07:31:06.647Z,5.67
2022-10-10T07:33:35.891Z,5.93
2022-10-10T07:36:03.827Z,6.53
2022-10-10T07:38:31.568Z,6.10
2022-10-10T07:41:00.708Z,5.97
2022-10-10T07:43:28.434Z,6.57
2022-10-10T07:45:56.519Z,6.87
2022-10-10T07:48:24.273Z,6.43
2022-10-10T07:50:51.979Z,6.70
2022-10-10T07:53:20.235Z,6.00
2022-10-10T07:55:48.322Z,5.50
2022-10-10T07:58:17.428Z,6.57
2022-10-10T08:00:45.174Z,5.23
2022-10-10T08:03:14.341Z,6.00
2022-10-10T08:05:42.804Z,5.47
2022-10-10T08:08:11.543Z,5.60
2022-10-10T08:10:39.387Z,6.20
2022-10-10T08:13:07.617Z,5.97
2022-10-10T08:15:36.727Z,6.63
2022-10-10T08:18:04.446Z,6.73
2022-10-10T08:20:32.148Z,5.90
2022-10-10T08:23:00.003Z,6.67
2022-10-10T08:25:27.746Z,7.47
2022-10-10T08:27:55.436Z,7.90
2022-10-10T08:30:23.151Z,7.80
2022-10-10T08:32:52.598Z,7.67
2022-10-10T08:35:20.982Z,7.77
2022-10-10T08:37:48.686Z,6.73
2022-10-10T08:40:20.383Z,6.90
2022-10-10T08:42:53.007Z,7.30
2022-10-10T08:45:25.295Z,8.47
2022-10-10T08:47:58.583Z,7.13
2022-10-10T08:50:30.279Z,7.43
2022-10-10T08:53:02.862Z,7.67
2022-10-10T08:55:33.636Z,8.13
2022-10-10T08:58:06.870Z,7.97
2022-10-10T09:00:39.780Z,7.93
2022-10-10T09:03:20.415Z,8.20
2022-10-10T09:06:06.444Z,6.53
2022-10-10T09:08:48.329Z,6.90
2022-10-10T09:11:28.383Z,6.27
2022-10-10T09:14:09.060Z,5.97
2022-10-10T09:16:44.289Z,6.37
2022-10-10T09:19:26.655Z,6.13
2022-10-10T09:21:58.382Z,6.23
2022-10-10T09:24:32.307Z,5.27
2022-10-10T09:27:04.932Z,5.43
2022-10-10T09:29:39.740Z,5.53
2022-10-10T09:32:12.950Z,4.87
2022-10-10T09:34:46.619Z,4.73
2022-10-10T09:37:29.572Z,4.77
2022-10-10T09:40:18.342Z,5.27
2022-10-10T09:42:46.417Z,5.20
2022-10-10T09:45:19.342Z,4.17
2022-10-10T09:47:49.763Z,4.53
2022-10-10T09:50:18.907Z,4.30
2022-10-10T09:52:47.990Z,4.27
2022-10-10T09:55:25.388Z,4.07
2022-10-10T09:57:54.376Z,4.03
2022-10-10T10:00:34.655Z,4.50
2022-10-10T10:03:14.490Z,4.07
2022-10-10T10:05:47.668Z,3.83
2022-10-10T10:08:25.788Z,3.63
2022-10-10T10:10:57.976Z,4.07
2022-10-10T10:13:28.919Z,3.80
2022-10-10T10:16:03.900Z,3.60
2022-10-10T10:18:41.636Z,3.73
2022-10-10T10:21:18.066Z,3.43
2022-10-10T10:23:52.456Z,3.97
2022-10-10T10:26:23.099Z,3.50
2022-10-10T10:28:52.694Z,3.80
2022-10-10T10:31:42.569Z,3.43
2022-10-10T10:34:34.973Z,4.13
2022-10-10T10:37:15.246Z,3.90
2022-10-10T10:39:52.851Z,3.73
2022-10-10T10:42:35.880Z,3.60
2022-10-10T10:45:10.568Z,3.57
2022-10-10T10:47:48.084Z,3.53
2022-10-10T10:50:34.312Z,4.03
2022-10-10T10:53:09.212Z,3.67
2022-10-10T10:55:42.880Z,3.23
2022-10-10T11:01:56.353Z,3.73
2022-10-10T11:05:23.379Z,3.55
2022-10-10T11:07:37.421Z,3.47
2022-10-10T11:10:17.802Z,3.70
2022-10-10T11:12:58.503Z,3.30
2022-10-10T11:15:54.107Z,3.13
2022-10-10T11:18:25.583Z,3.13
2022-10-10T11:21:00.031Z,2.90
2022-10-10T11:23:34.435Z,3.60
2022-10-10T11:26:07.574Z,2.90
2022-10-10T11:28:41.040Z,3.07
2022-10-10T11:31:14.031Z,3.47
2022-10-10T11:33:45.212Z,2.90
2022-10-10T11:36:17.504Z,2.55
2022-10-10T11:38:57.214Z,2.70
2022-10-10T11:41:35.027Z,3.72
2022-10-10T11:44:08.832Z,3.28
2022-10-10T11:46:42.900Z,3.37
2022-10-10T11:49:22.678Z,2.97
2022-10-10T11:52:32.476Z,3.20
2022-10-10T11:55:07.032Z,2.88
2022-10-10T11:57:41.504Z,3.13
2022-10-10T12:00:13.931Z,3.27
2022-10-10T12:02:43.450Z,2.97
2022-10-10T12:05:22.111Z,3.35
2022-10-10T12:08:04.488Z,3.85
2022-10-10T12:10:36.871Z,3.00
2022-10-10T12:13:20.967Z,2.65
2022-10-10T12:15:52.346Z,2.63
2022-10-10T12:18:30.533Z,2.97
2022-10-10T12:21:07.498Z,2.58
2022-10-10T12:23:35.732Z,2.70
2022-10-10T12:26:04.295Z,2.40
2022-10-10T12:28:38.430Z,2.92
2022-10-10T12:31:29.574Z,2.90
2022-10-10T12:34:14.091Z,2.65
2022-10-10T12:36:56.495Z,2.47
2022-10-10T12:39:37.466Z,2.60
2022-10-10T12:42:25.548Z,2.43
2022-10-10T12:44:54.766Z,3.03
2022-10-10T12:47:52.578Z,2.88
2022-10-10T12:50:24.140Z,2.40
2022-10-10T12:52:56.150Z,2.42
2022-10-10T12:55:26.025Z,2.70
2022-10-10T12:57:55.883Z,2.97
2022-10-10T13:00:27.235Z,2.70
2022-10-10T13:02:57.297Z,2.60
2022-10-10T13:05:29.015Z,2.97
2022-10-10T13:08:02.003Z,2.35
2022-10-10T13:10:30.938Z,2.60
2022-10-10T13:13:03.852Z,2.75
2022-10-10T13:15:34.916Z,2.42
2022-10-10T13:18:03.038Z,2.80
2022-10-10T13:20:36.098Z,2.55
2022-10-10T13:23:05.515Z,2.58
2022-10-10T13:25:34.681Z,2.72
2022-10-10T13:28:03.127Z,2.75
2022-10-10T13:30:30.979Z,2.97
2022-10-10T13:33:00.098Z,2.40
2022-10-10T13:35:29.111Z,2.40
2022-10-10T13:38:00.110Z,2.83
2022-10-10T13:40:28.990Z,2.50
2022-10-10T13:42:58.575Z,3.00
2022-10-10T13:45:37.108Z,2.78
2022-10-10T13:48:22.752Z,2.72
2022-10-10T13:51:10.410Z,2.65
2022-10-10T13:53:51.271Z,2.97
2022-10-10T13:56:23.980Z,2.60
2022-10-10T13:58:54.653Z,2.88
2022-10-10T14:01:34.633Z,2.92
2022-10-10T14:04:08.915Z,2.90
2022-10-10T14:06:37.039Z,2.30
2022-10-10T14:09:11.108Z,2.50
2022-10-10T14:11:44.173Z,3.05
2022-10-10T14:14:21.079Z,2.63
2022-10-10T14:16:58.764Z,2.92
2022-10-10T14:19:28.140Z,3.55
2022-10-10T14:21:56.087Z,3.08
2022-10-10T14:24:23.863Z,3.17
2022-10-10T14:26:51.790Z,2.83
2022-10-10T14:29:20.527Z,3.15
2022-10-10T14:31:48.758Z,3.10
2022-10-10T14:34:16.938Z,3.50
2022-10-10T14:36:49.310Z,3.28
2022-10-10T14:39:19.887Z,2.53
2022-10-10T14:41:48.204Z,2.42
2022-10-10T14:44:16.332Z,3.15
2022-10-10T14:46:44.187Z,3.22
2022-10-10T14:49:19.987Z,3.05
2022-10-10T14:51:49.214Z,3.58
2022-10-10T14:54:20.047Z,3.10
2022-10-10T14:57:07.011Z,3.08
2022-10-10T14:59:50.188Z,2.72
2022-10-10T15:02:20.246Z,3.13
2022-10-10T15:04:48.209Z,3.35
2022-10-10T15:07:19.086Z,2.97
2022-10-10T15:10:30.904Z,3.00
2022-10-10T15:12:39.365Z,2.95
2022-10-10T15:15:08.377Z,2.88
2022-10-10T15:17:36.240Z,2.25
2022-10-10T15:20:07.373Z,2.75
2022-10-10T15:22:38.123Z,2.58
2022-10-10T15:25:07.053Z,2.60
2022-10-10T15:27:34.998Z,3.55
2022-10-10T15:30:02.899Z,2.63
2022-10-10T15:32:30.722Z,3.53
2022-10-10T15:34:58.749Z,3.53
2022-10-10T15:37:30.102Z,4.30
2022-10-10T15:39:59.326Z,3.28
2022-10-10T15:42:27.027Z,3.35
2022-10-10T15:44:54.876Z,3.50
2022-10-10T15:47:22.695Z,3.33
2022-10-10T15:49:50.871Z,3.20
2022-10-10T15:52:22.880Z,3.70
2022-10-10T15:54:51.313Z,3.30
2022-10-10T15:57:23.730Z,3.70
2022-10-10T15:59:51.467Z,4.47
2022-10-10T16:02:19.166Z,3.65
2022-10-10T16:04:47.324Z,3.08
2022-10-10T16:07:34.614Z,3.63
2022-10-10T16:10:03.190Z,4.25
2022-10-10T16:12:35.357Z,2.75
2022-10-10T16:15:06.941Z,3.50
2022-10-10T16:17:35.045Z,3.55
2022-10-10T16:20:03.184Z,3.25
2022-10-10T16:22:31.358Z,3.40
2022-10-10T16:27:48.209Z,3.25
2022-10-10T16:30:16.508Z,2.97
2022-10-10T16:32:44.357Z,3.13
2022-10-10T16:35:12.632Z,3.15
2022-10-10T16:37:40.525Z,3.78
2022-10-10T16:40:09.540Z,3.45
2022-10-10T16:42:37.618Z,3.17
2022-10-10T16:45:07.877Z,3.47
2022-10-10T16:47:36.087Z,3.45
2022-10-10T16:50:08.297Z,2.95
2022-10-10T16:52:38.387Z,3.85
2022-10-10T16:55:07.556Z,3.90
2022-10-10T16:57:35.508Z,3.20
2022-10-10T17:00:14.355Z,4.00
2022-10-10T17:02:42.555Z,3.70
2022-10-10T17:05:10.827Z,4.53
2022-10-10T17:07:39.180Z,3.78
2022-10-10T17:10:07.952Z,4.47
2022-10-10T17:12:35.671Z,4.13
2022-10-10T17:15:05.605Z,3.88
2022-10-10T17:17:37.766Z,3.47
2022-10-10T17:20:07.420Z,3.13
2022-10-10T17:22:35.590Z,3.30
2022-10-10T17:25:03.341Z,3.47
2022-10-10T17:27:31.100Z,3.85
2022-10-10T17:30:00.361Z,3.95
2022-10-10T17:32:28.034Z,4.15
2022-10-10T17:34:58.403Z,5.30
2022-10-10T17:37:26.408Z,5.28
2022-10-10T17:39:54.179Z,4.60
2022-10-10T17:42:21.985Z,5.30
2022-10-10T17:44:53.948Z,5.20
2022-10-10T17:47:23.756Z,5.28
2022-10-10T17:49:51.890Z,4.72
2022-10-10T17:52:21.587Z,4.85
2022-10-10T17:54:49.996Z,4.78
2022-10-10T17:57:18.252Z,5.35
2022-10-10T17:59:46.335Z,4.00
2022-10-10T18:02:16.353Z,4.63
2022-10-10T18:04:44.536Z,4.65
2022-10-10T18:07:12.761Z,4.05
2022-10-10T18:09:41.976Z,4.80
2022-10-10T18:12:09.678Z,4.65
2022-10-10T18:14:37.801Z,4.78
2022-10-10T18:17:05.739Z,4.85
2022-10-10T18:19:33.923Z,4.70
2022-10-10T18:22:01.704Z,4.72
2022-10-10T18:24:29.789Z,6.22
2022-10-10T18:26:58.868Z,5.90
2022-10-10T18:29:26.741Z,5.30
2022-10-10T18:31:56.324Z,5.03
2022-10-10T18:34:24.313Z,5.25
2022-10-10T18:37:01.193Z,9.40
2022-10-10T18:39:33.267Z,8.85
2022-10-10T18:42:03.094Z,7.00
2022-10-10T18:44:31.084Z,7.40
2022-10-10T18:46:59.090Z,7.03
2022-10-10T18:49:27.316Z,5.95
2022-10-10T18:51:55.309Z,5.47
2022-10-10T18:54:23.373Z,4.15
2022-10-10T18:56:51.101Z,4.33
2022-10-10T18:59:22.107Z,3.55
2022-10-10T19:01:51.791Z,3.00
2022-10-10T19:04:21.145Z,3.13
2022-10-10T19:06:57.021Z,2.53
2022-10-10T19:09:25.648Z,2.22
2022-10-10T19:11:53.560Z,2.15
2022-10-10T19:14:22.704Z,2.30
2022-10-10T19:16:50.405Z,2.10
2022-10-10T19:19:20.204Z,2.10
2022-10-10T19:21:49.331Z,2.15
2022-10-10T19:24:20.928Z,2.25
2022-10-10T19:26:53.610Z,2.58
2022-10-10T19:29:23.374Z,2.25
2022-10-10T19:31:51.562Z,1.90
2022-10-10T19:34:19.284Z,1.70
2022-10-10T19:36:47.098Z,1.50
2022-10-10T19:39:14.863Z,1.65
2022-10-10T19:41:43.033Z,2.13
2022-10-10T19:44:10.896Z,1.80
2022-10-10T19:46:40.786Z,1.98
2022-10-10T19:49:08.782Z,2.40
2022-10-10T19:51:37.364Z,1.80
2022-10-10T19:54:05.646Z,1.95
2022-10-10T19:56:33.748Z,1.55
2022-10-10T19:59:04.452Z,2.13
2022-10-10T20:01:32.520Z,2.25
2022-10-10T20:04:03.703Z,1.70
2022-10-10T20:06:31.716Z,1.48
2022-10-10T20:08:59.456Z,2.30
2022-10-10T20:11:27.636Z,2.37
2022-10-10T20:14:01.270Z,2.53
2022-10-10T20:16:30.360Z,1.93
2022-10-10T20:19:00.809Z,1.65
2022-10-10T20:21:59.004Z,1.50
2022-10-10T20:24:46.759Z,1.63
2022-10-10T20:28:04.598Z,2.30
2022-10-10T20:30:44.212Z,2.08
2022-10-10T20:33:56.050Z,2.03
2022-10-10T20:37:13.941Z,2.30
2022-10-10T20:43:21.647Z,1.83
2022-10-10T20:46:37.249Z,2.17
2022-10-10T20:49:08.226Z,2.50
2022-10-10T20:51:58.272Z,2.30
2022-10-10T20:54:29.970Z,2.43
2022-10-10T20:57:08.162Z,1.90
2022-10-10T20:59:42.291Z,2.07
2022-10-10T21:02:11.085Z,2.20
2022-10-10T21:04:38.790Z,2.10
2022-10-10T21:07:06.480Z,2.27
2022-10-10T21:09:34.551Z,2.58
2022-10-10T21:12:03.679Z,1.88
2022-10-10T21:14:31.501Z,2.37
2022-10-10T21:16:59.228Z,2.53
2022-10-10T21:19:26.943Z,2.03
2022-10-10T21:21:54.645Z,1.80
2022-10-10T21:24:22.341Z,1.80
2022-10-10T21:26:50.690Z,2.57
2022-10-10T21:29:19.729Z,2.50
2022-10-10T21:31:47.527Z,1.83
2022-10-10T21:34:18.624Z,2.20
2022-10-10T21:36:46.702Z,2.50
2022-10-10T21:39:15.653Z,1.92
2022-10-10T21:41:43.594Z,1.60
2022-10-10T21:44:11.644Z,2.00
2022-10-10T21:46:40.823Z,2.10
2022-10-10T21:49:10.017Z,1.70
2022-10-10T21:51:38.982Z,1.83
2022-10-10T21:54:07.665Z,2.07
2022-10-10T21:56:35.490Z,1.93
2022-10-10T21:59:03.456Z,1.97
2022-10-10T22:01:32.960Z,2.42
2022-10-10T22:04:03.415Z,2.20
2022-10-10T22:06:31.441Z,2.23
2022-10-10T22:09:00.539Z,1.90
2022-10-10T22:11:29.609Z,2.33
2022-10-10T22:13:57.821Z,2.50
2022-10-10T22:16:25.695Z,2.20
2022-10-10T22:18:57.311Z,2.55
2022-10-10T22:21:30.640Z,2.30
2022-10-10T22:23:59.207Z,2.20
2022-10-10T22:26:26.928Z,2.87
2022-10-10T22:28:54.776Z,2.77
2022-10-10T22:31:22.611Z,2.63
2022-10-10T22:33:50.364Z,2.57
2022-10-10T22:36:18.090Z,1.90
2022-10-10T22:38:47.340Z,2.40
2022-10-10T22:41:15.140Z,2.00
2022-10-10T22:43:42.917Z,2.27
2022-10-10T22:46:10.625Z,1.95
2022-10-10T22:48:38.406Z,2.77
2022-10-10T22:51:08.231Z,2.63
2022-10-10T22:53:36.125Z,2.22
2022-10-10T22:56:06.011Z,2.40
2022-10-10T22:58:34.062Z,2.10
2022-10-10T23:01:05.321Z,1.90
2022-10-10T23:03:33.238Z,2.58
2022-10-10T23:06:01.118Z,2.00
2022-10-10T23:08:29.057Z,2.88
2022-10-10T23:10:57.451Z,2.22
2022-10-10T23:13:26.784Z,2.43
2022-10-10T23:15:54.604Z,2.60
2022-10-10T23:18:22.300Z,2.10
2022-10-10T23:20:50.548Z,2.30
2022-10-10T23:23:19.438Z,2.17
2022-10-10T23:25:48.191Z,2.13
2022-10-10T23:28:17.379Z,1.93
2022-10-10T23:30:48.559Z,2.37
2022-10-10T23:33:17.160Z,2.70
2022-10-10T23:35:44.955Z,1.80
2022-10-10T23:38:12.675Z,2.47
2022-10-10T23:40:40.395Z,2.10
2022-10-10T23:43:10.546Z,2.33
2022-10-10T23:45:40.959Z,2.23
2022-10-10T23:48:10.071Z,2.50
2022-10-10T23:50:37.771Z,2.23
2022-10-10T23:53:05.606Z,2.50
2022-10-10T23:55:36.967Z,1.80
2022-10-10T23:58:04.953Z,1.97
